sensor_id;sensor_type;location;lat;lon;timestamp;P1;durP1;ratioP1;P2;durP2;ratioP2
55172;SDS011;41061;52.822;6.860;2023-05-02T00:00:44;21.13;;;12.82;;
55172;SDS011;41061;52.822;6.860;2023-05-02T00:03:10;24.98;;;14.80;;
55172;SDS011;41061;52.822;6.860;2023-05-02T00:05:36;25.52;;;13.38;;
55172;SDS011;41061;52.822;6.860;2023-05-02T00:08:02;26.65;;;14.35;;
55172;SDS011;41061;52.822;6.860;2023-05-02T00:10:29;24.95;;;12.75;;
55172;SDS011;41061;52.822;6.860;2023-05-02T00:12:54;19.75;;;12.10;;
55172;SDS011;41061;52.822;6.860;2023-05-02T00:15:20;22.40;;;11.35;;
55172;SDS011;41061;52.822;6.860;2023-05-02T00:17:46;23.88;;;13.05;;
55172;SDS011;41061;52.822;6.860;2023-05-02T00:20:12;21.63;;;12.05;;
55172;SDS011;41061;52.822;6.860;2023-05-02T00:22:38;21.55;;;11.75;;
55172;SDS011;41061;52.822;6.860;2023-05-02T00:25:04;21.10;;;10.48;;
55172;SDS011;41061;52.822;6.860;2023-05-02T00:27:30;18.00;;;9.90;;
55172;SDS011;41061;52.822;6.860;2023-05-02T00:29:57;20.77;;;10.70;;
55172;SDS011;41061;52.822;6.860;2023-05-02T00:32:24;22.65;;;11.00;;
55172;SDS011;41061;52.822;6.860;2023-05-02T00:34:50;21.45;;;9.80;;
55172;SDS011;41061;52.822;6.860;2023-05-02T00:37:16;15.13;;;9.18;;
55172;SDS011;41061;52.822;6.860;2023-05-02T00:39:42;18.90;;;9.43;;
55172;SDS011;41061;52.822;6.860;2023-05-02T00:42:09;19.88;;;9.85;;
55172;SDS011;41061;52.822;6.860;2023-05-02T00:44:35;19.35;;;8.90;;
55172;SDS011;41061;52.822;6.860;2023-05-02T00:47:01;13.30;;;7.65;;
55172;SDS011;41061;52.822;6.860;2023-05-02T00:49:27;20.92;;;8.48;;
55172;SDS011;41061;52.822;6.860;2023-05-02T00:51:53;20.20;;;7.20;;
55172;SDS011;41061;52.822;6.860;2023-05-02T00:54:19;13.82;;;5.70;;
55172;SDS011;41061;52.822;6.860;2023-05-02T00:56:45;12.05;;;4.80;;
55172;SDS011;41061;52.822;6.860;2023-05-02T00:59:11;11.30;;;5.10;;
55172;SDS011;41061;52.822;6.860;2023-05-02T01:04:39;8.68;;;3.83;;
55172;SDS011;41061;52.822;6.860;2023-05-02T01:09:51;7.47;;;3.67;;
55172;SDS011;41061;52.822;6.860;2023-05-02T01:12:31;5.68;;;2.85;;
55172;SDS011;41061;52.822;6.860;2023-05-02T01:15:06;9.10;;;3.30;;
55172;SDS011;41061;52.822;6.860;2023-05-02T01:17:36;7.30;;;2.83;;
55172;SDS011;41061;52.822;6.860;2023-05-02T01:20:04;6.75;;;2.88;;
55172;SDS011;41061;52.822;6.860;2023-05-02T01:22:34;5.00;;;2.50;;
55172;SDS011;41061;52.822;6.860;2023-05-02T01:30:26;4.20;;;2.25;;
55172;SDS011;41061;52.822;6.860;2023-05-02T01:32:55;8.85;;;2.67;;
55172;SDS011;41061;52.822;6.860;2023-05-02T01:35:23;7.05;;;3.60;;
55172;SDS011;41061;52.822;6.860;2023-05-02T01:37:50;10.63;;;3.10;;
55172;SDS011;41061;52.822;6.860;2023-05-02T01:40:18;5.75;;;3.00;;
55172;SDS011;41061;52.822;6.860;2023-05-02T01:42:50;6.20;;;2.55;;
55172;SDS011;41061;52.822;6.860;2023-05-02T01:45:18;7.22;;;2.53;;
55172;SDS011;41061;52.822;6.860;2023-05-02T01:47:45;12.30;;;3.15;;
55172;SDS011;41061;52.822;6.860;2023-05-02T01:50:15;5.70;;;2.25;;
55172;SDS011;41061;52.822;6.860;2023-05-02T01:52:44;6.78;;;2.22;;
55172;SDS011;41061;52.822;6.860;2023-05-02T01:55:14;9.88;;;2.65;;
55172;SDS011;41061;52.822;6.860;2023-05-02T01:57:41;6.18;;;2.53;;
55172;SDS011;41061;52.822;6.860;2023-05-02T02:00:10;9.40;;;2.45;;
55172;SDS011;41061;52.822;6.860;2023-05-02T02:02:38;6.20;;;2.40;;
55172;SDS011;41061;52.822;6.860;2023-05-02T02:05:06;5.57;;;2.80;;
55172;SDS011;41061;52.822;6.860;2023-05-02T02:07:33;7.10;;;2.35;;
55172;SDS011;41061;52.822;6.860;2023-05-02T02:09:59;8.02;;;2.67;;
55172;SDS011;41061;52.822;6.860;2023-05-02T02:12:26;8.18;;;2.50;;
55172;SDS011;41061;52.822;6.860;2023-05-02T02:14:56;8.68;;;2.85;;
55172;SDS011;41061;52.822;6.860;2023-05-02T02:17:37;9.27;;;2.65;;
55172;SDS011;41061;52.822;6.860;2023-05-02T02:20:07;8.80;;;2.80;;
55172;SDS011;41061;52.822;6.860;2023-05-02T02:22:38;7.10;;;2.70;;
55172;SDS011;41061;52.822;6.860;2023-05-02T02:25:07;6.95;;;2.75;;
55172;SDS011;41061;52.822;6.860;2023-05-02T02:27:36;13.07;;;2.70;;
55172;SDS011;41061;52.822;6.860;2023-05-02T02:30:02;8.27;;;2.80;;
55172;SDS011;41061;52.822;6.860;2023-05-02T02:32:29;7.10;;;2.85;;
55172;SDS011;41061;52.822;6.860;2023-05-02T02:34:54;11.32;;;3.05;;
55172;SDS011;41061;52.822;6.860;2023-05-02T02:37:24;12.27;;;3.15;;
55172;SDS011;41061;52.822;6.860;2023-05-02T02:40:06;8.68;;;2.92;;
55172;SDS011;41061;52.822;6.860;2023-05-02T02:45:23;11.73;;;3.13;;
55172;SDS011;41061;52.822;6.860;2023-05-02T02:50:40;9.90;;;2.97;;
55172;SDS011;41061;52.822;6.860;2023-05-02T02:53:18;7.20;;;2.67;;
55172;SDS011;41061;52.822;6.860;2023-05-02T02:55:54;7.85;;;2.58;;
55172;SDS011;41061;52.822;6.860;2023-05-02T02:58:33;10.98;;;2.47;;
55172;SDS011;41061;52.822;6.860;2023-05-02T03:01:16;8.95;;;2.88;;
55172;SDS011;41061;52.822;6.860;2023-05-02T03:03:44;14.88;;;3.75;;
55172;SDS011;41061;52.822;6.860;2023-05-02T03:06:12;7.75;;;2.42;;
55172;SDS011;41061;52.822;6.860;2023-05-02T03:08:41;13.35;;;3.30;;
55172;SDS011;41061;52.822;6.860;2023-05-02T03:11:08;15.02;;;3.40;;
55172;SDS011;41061;52.822;6.860;2023-05-02T03:13:34;14.73;;;3.53;;
55172;SDS011;41061;52.822;6.860;2023-05-02T03:19:04;15.02;;;3.90;;
55172;SDS011;41061;52.822;6.860;2023-05-02T03:21:31;22.88;;;4.18;;
55172;SDS011;41061;52.822;6.860;2023-05-02T03:24:00;19.90;;;3.65;;
55172;SDS011;41061;52.822;6.860;2023-05-02T03:26:35;18.80;;;4.93;;
55172;SDS011;41061;52.822;6.860;2023-05-02T03:29:01;22.10;;;4.70;;
55172;SDS011;41061;52.822;6.860;2023-05-02T03:31:27;24.42;;;4.10;;
55172;SDS011;41061;52.822;6.860;2023-05-02T03:33:52;24.02;;;4.20;;
55172;SDS011;41061;52.822;6.860;2023-05-02T03:36:18;15.88;;;3.88;;
55172;SDS011;41061;52.822;6.860;2023-05-02T03:38:44;22.17;;;4.22;;
55172;SDS011;41061;52.822;6.860;2023-05-02T03:41:10;25.63;;;4.43;;
55172;SDS011;41061;52.822;6.860;2023-05-02T03:43:35;20.25;;;4.47;;
55172;SDS011;41061;52.822;6.860;2023-05-02T03:46:05;22.65;;;5.13;;
55172;SDS011;41061;52.822;6.860;2023-05-02T03:48:33;26.73;;;4.32;;
55172;SDS011;41061;52.822;6.860;2023-05-02T03:50:58;24.83;;;4.32;;
55172;SDS011;41061;52.822;6.860;2023-05-02T03:53:25;18.42;;;3.67;;
55172;SDS011;41061;52.822;6.860;2023-05-02T03:55:51;18.80;;;3.45;;
55172;SDS011;41061;52.822;6.860;2023-05-02T03:58:17;23.33;;;4.03;;
55172;SDS011;41061;52.822;6.860;2023-05-02T04:00:43;20.80;;;4.00;;
55172;SDS011;41061;52.822;6.860;2023-05-02T04:03:09;20.40;;;3.55;;
55172;SDS011;41061;52.822;6.860;2023-05-02T04:05:35;19.00;;;4.13;;
55172;SDS011;41061;52.822;6.860;2023-05-02T04:08:00;21.25;;;3.60;;
55172;SDS011;41061;52.822;6.860;2023-05-02T04:10:27;15.35;;;3.88;;
55172;SDS011;41061;52.822;6.860;2023-05-02T04:12:53;20.75;;;3.35;;
55172;SDS011;41061;52.822;6.860;2023-05-02T04:15:18;28.42;;;4.30;;
55172;SDS011;41061;52.822;6.860;2023-05-02T04:17:44;21.58;;;3.25;;
55172;SDS011;41061;52.822;6.860;2023-05-02T04:20:10;21.80;;;5.43;;
55172;SDS011;41061;52.822;6.860;2023-05-02T04:22:36;15.95;;;3.47;;
55172;SDS011;41061;52.822;6.860;2023-05-02T04:25:04;20.92;;;3.60;;
55172;SDS011;41061;52.822;6.860;2023-05-02T04:27:31;16.55;;;4.07;;
55172;SDS011;41061;52.822;6.860;2023-05-02T04:29:56;22.33;;;3.53;;
55172;SDS011;41061;52.822;6.860;2023-05-02T04:32:22;14.60;;;3.38;;
55172;SDS011;41061;52.822;6.860;2023-05-02T04:34:49;15.80;;;3.20;;
55172;SDS011;41061;52.822;6.860;2023-05-02T04:37:15;21.70;;;4.97;;
55172;SDS011;41061;52.822;6.860;2023-05-02T04:39:41;17.63;;;3.05;;
55172;SDS011;41061;52.822;6.860;2023-05-02T04:42:06;20.45;;;4.05;;
55172;SDS011;41061;52.822;6.860;2023-05-02T04:44:32;15.25;;;3.05;;
55172;SDS011;41061;52.822;6.860;2023-05-02T04:46:58;12.45;;;3.08;;
55172;SDS011;41061;52.822;6.860;2023-05-02T04:49:24;13.73;;;2.80;;
55172;SDS011;41061;52.822;6.860;2023-05-02T04:51:49;16.20;;;3.75;;
55172;SDS011;41061;52.822;6.860;2023-05-02T04:54:16;12.85;;;2.65;;
55172;SDS011;41061;52.822;6.860;2023-05-02T04:56:42;12.75;;;2.47;;
55172;SDS011;41061;52.822;6.860;2023-05-02T04:59:08;11.05;;;2.58;;
55172;SDS011;41061;52.822;6.860;2023-05-02T05:01:33;12.40;;;2.40;;
55172;SDS011;41061;52.822;6.860;2023-05-02T05:03:59;9.02;;;2.20;;
55172;SDS011;41061;52.822;6.860;2023-05-02T05:06:25;17.08;;;3.60;;
55172;SDS011;41061;52.822;6.860;2023-05-02T05:08:51;12.52;;;2.25;;
55172;SDS011;41061;52.822;6.860;2023-05-02T05:11:17;13.68;;;2.42;;
55172;SDS011;41061;52.822;6.860;2023-05-02T05:13:43;13.55;;;2.05;;
55172;SDS011;41061;52.822;6.860;2023-05-02T05:16:09;12.50;;;2.13;;
55172;SDS011;41061;52.822;6.860;2023-05-02T05:18:35;9.40;;;2.45;;
55172;SDS011;41061;52.822;6.860;2023-05-02T05:21:07;12.65;;;1.75;;
55172;SDS011;41061;52.822;6.860;2023-05-02T05:23:33;11.95;;;1.80;;
55172;SDS011;41061;52.822;6.860;2023-05-02T05:26:13;9.95;;;1.92;;
55172;SDS011;41061;52.822;6.860;2023-05-02T05:28:39;9.07;;;1.90;;
55172;SDS011;41061;52.822;6.860;2023-05-02T05:31:06;7.90;;;1.65;;
55172;SDS011;41061;52.822;6.860;2023-05-02T05:33:32;9.73;;;1.65;;
55172;SDS011;41061;52.822;6.860;2023-05-02T05:36:12;6.95;;;1.70;;
55172;SDS011;41061;52.822;6.860;2023-05-02T05:38:42;7.05;;;1.40;;
55172;SDS011;41061;52.822;6.860;2023-05-02T05:41:08;8.70;;;2.38;;
55172;SDS011;41061;52.822;6.860;2023-05-02T05:43:35;11.68;;;2.58;;
55172;SDS011;41061;52.822;6.860;2023-05-02T05:46:01;6.30;;;1.65;;
55172;SDS011;41061;52.822;6.860;2023-05-02T05:48:27;6.80;;;1.88;;
55172;SDS011;41061;52.822;6.860;2023-05-02T05:50:53;8.82;;;2.05;;
55172;SDS011;41061;52.822;6.860;2023-05-02T05:53:18;4.68;;;1.50;;
55172;SDS011;41061;52.822;6.860;2023-05-02T05:55:44;9.63;;;1.83;;
55172;SDS011;41061;52.822;6.860;2023-05-02T05:58:10;7.65;;;1.70;;
55172;SDS011;41061;52.822;6.860;2023-05-02T06:00:37;9.00;;;1.73;;
55172;SDS011;41061;52.822;6.860;2023-05-02T06:03:03;13.82;;;1.80;;
55172;SDS011;41061;52.822;6.860;2023-05-02T06:05:30;8.63;;;1.95;;
55172;SDS011;41061;52.822;6.860;2023-05-02T06:07:56;10.80;;;1.85;;
55172;SDS011;41061;52.822;6.860;2023-05-02T06:10:22;11.75;;;2.13;;
55172;SDS011;41061;52.822;6.860;2023-05-02T06:12:48;9.88;;;1.90;;
55172;SDS011;41061;52.822;6.860;2023-05-02T06:15:14;10.45;;;1.92;;
55172;SDS011;41061;52.822;6.860;2023-05-02T06:17:40;6.35;;;2.00;;
55172;SDS011;41061;52.822;6.860;2023-05-02T06:20:06;10.25;;;2.30;;
55172;SDS011;41061;52.822;6.860;2023-05-02T06:22:33;11.65;;;2.05;;
55172;SDS011;41061;52.822;6.860;2023-05-02T06:25:00;14.07;;;2.45;;
55172;SDS011;41061;52.822;6.860;2023-05-02T06:27:25;9.27;;;1.95;;
55172;SDS011;41061;52.822;6.860;2023-05-02T06:29:52;10.32;;;2.25;;
55172;SDS011;41061;52.822;6.860;2023-05-02T06:32:18;8.90;;;2.35;;
55172;SDS011;41061;52.822;6.860;2023-05-02T06:34:44;14.02;;;2.30;;
55172;SDS011;41061;52.822;6.860;2023-05-02T06:37:10;14.13;;;2.38;;
55172;SDS011;41061;52.822;6.860;2023-05-02T06:39:36;14.13;;;2.45;;
55172;SDS011;41061;52.822;6.860;2023-05-02T06:42:02;12.32;;;2.42;;
55172;SDS011;41061;52.822;6.860;2023-05-02T06:44:28;7.75;;;2.28;;
55172;SDS011;41061;52.822;6.860;2023-05-02T06:46:54;15.88;;;3.25;;
55172;SDS011;41061;52.822;6.860;2023-05-02T06:49:20;12.55;;;2.50;;
55172;SDS011;41061;52.822;6.860;2023-05-02T06:51:46;12.43;;;2.65;;
55172;SDS011;41061;52.822;6.860;2023-05-02T06:54:12;6.80;;;2.33;;
55172;SDS011;41061;52.822;6.860;2023-05-02T06:56:39;13.23;;;2.33;;
55172;SDS011;41061;52.822;6.860;2023-05-02T06:59:05;8.40;;;2.35;;
55172;SDS011;41061;52.822;6.860;2023-05-02T07:01:31;12.95;;;3.28;;
55172;SDS011;41061;52.822;6.860;2023-05-02T07:03:57;12.88;;;2.25;;
55172;SDS011;41061;52.822;6.860;2023-05-02T07:06:23;16.42;;;3.47;;
55172;SDS011;41061;52.822;6.860;2023-05-02T07:08:49;15.18;;;3.30;;
55172;SDS011;41061;52.822;6.860;2023-05-02T07:11:14;27.10;;;4.50;;
55172;SDS011;41061;52.822;6.860;2023-05-02T07:13:40;13.98;;;2.78;;
55172;SDS011;41061;52.822;6.860;2023-05-02T07:16:06;10.93;;;2.25;;
55172;SDS011;41061;52.822;6.860;2023-05-02T07:18:32;11.48;;;2.55;;
55172;SDS011;41061;52.822;6.860;2023-05-02T07:20:57;18.83;;;3.00;;
55172;SDS011;41061;52.822;6.860;2023-05-02T07:23:25;11.68;;;2.38;;
55172;SDS011;41061;52.822;6.860;2023-05-02T07:25:51;12.98;;;2.50;;
55172;SDS011;41061;52.822;6.860;2023-05-02T07:28:16;11.73;;;3.22;;
55172;SDS011;41061;52.822;6.860;2023-05-02T07:30:42;9.07;;;2.25;;
55172;SDS011;41061;52.822;6.860;2023-05-02T07:33:08;13.25;;;2.78;;
55172;SDS011;41061;52.822;6.860;2023-05-02T07:35:33;7.63;;;2.22;;
55172;SDS011;41061;52.822;6.860;2023-05-02T07:37:59;8.55;;;2.03;;
55172;SDS011;41061;52.822;6.860;2023-05-02T07:40:25;5.78;;;1.92;;
55172;SDS011;41061;52.822;6.860;2023-05-02T07:42:52;9.02;;;2.25;;
55172;SDS011;41061;52.822;6.860;2023-05-02T07:45:18;12.55;;;3.03;;
55172;SDS011;41061;52.822;6.860;2023-05-02T07:47:44;13.00;;;2.92;;
55172;SDS011;41061;52.822;6.860;2023-05-02T07:50:10;11.77;;;2.20;;
55172;SDS011;41061;52.822;6.860;2023-05-02T07:52:36;10.15;;;2.28;;
55172;SDS011;41061;52.822;6.860;2023-05-02T07:55:02;5.15;;;1.80;;
55172;SDS011;41061;52.822;6.860;2023-05-02T07:57:29;15.10;;;2.67;;
55172;SDS011;41061;52.822;6.860;2023-05-02T07:59:55;11.63;;;2.13;;
55172;SDS011;41061;52.822;6.860;2023-05-02T08:02:21;10.70;;;2.25;;
55172;SDS011;41061;52.822;6.860;2023-05-02T08:04:48;13.13;;;3.33;;
55172;SDS011;41061;52.822;6.860;2023-05-02T08:07:14;8.75;;;2.17;;
55172;SDS011;41061;52.822;6.860;2023-05-02T08:09:40;13.57;;;2.58;;
55172;SDS011;41061;52.822;6.860;2023-05-02T08:12:05;11.60;;;2.05;;
55172;SDS011;41061;52.822;6.860;2023-05-02T08:14:31;10.50;;;2.10;;
55172;SDS011;41061;52.822;6.860;2023-05-02T08:16:57;10.95;;;2.28;;
55172;SDS011;41061;52.822;6.860;2023-05-02T08:19:24;13.65;;;2.10;;
55172;SDS011;41061;52.822;6.860;2023-05-02T08:21:49;11.65;;;1.92;;
55172;SDS011;41061;52.822;6.860;2023-05-02T08:24:15;11.73;;;2.40;;
55172;SDS011;41061;52.822;6.860;2023-05-02T08:26:41;8.32;;;2.97;;
55172;SDS011;41061;52.822;6.860;2023-05-02T08:29:06;8.43;;;2.05;;
55172;SDS011;41061;52.822;6.860;2023-05-02T08:31:35;8.05;;;2.30;;
55172;SDS011;41061;52.822;6.860;2023-05-02T08:34:02;10.40;;;2.00;;
55172;SDS011;41061;52.822;6.860;2023-05-02T08:36:27;9.55;;;2.25;;
55172;SDS011;41061;52.822;6.860;2023-05-02T08:38:53;8.23;;;1.77;;
55172;SDS011;41061;52.822;6.860;2023-05-02T08:41:19;5.85;;;2.08;;
55172;SDS011;41061;52.822;6.860;2023-05-02T08:43:46;9.30;;;2.22;;
55172;SDS011;41061;52.822;6.860;2023-05-02T08:46:13;10.93;;;1.90;;
55172;SDS011;41061;52.822;6.860;2023-05-02T08:48:41;8.68;;;2.15;;
55172;SDS011;41061;52.822;6.860;2023-05-02T08:51:09;8.35;;;2.60;;
55172;SDS011;41061;52.822;6.860;2023-05-02T08:53:36;9.65;;;2.20;;
55172;SDS011;41061;52.822;6.860;2023-05-02T08:56:03;7.72;;;2.38;;
55172;SDS011;41061;52.822;6.860;2023-05-02T08:58:30;11.48;;;2.25;;
55172;SDS011;41061;52.822;6.860;2023-05-02T09:00:57;9.13;;;2.30;;
55172;SDS011;41061;52.822;6.860;2023-05-02T09:03:31;10.27;;;2.60;;
55172;SDS011;41061;52.822;6.860;2023-05-02T09:06:06;6.32;;;1.80;;
55172;SDS011;41061;52.822;6.860;2023-05-02T09:08:51;8.05;;;2.10;;
55172;SDS011;41061;52.822;6.860;2023-05-02T09:11:17;9.77;;;1.95;;
55172;SDS011;41061;52.822;6.860;2023-05-02T09:13:44;11.13;;;2.38;;
55172;SDS011;41061;52.822;6.860;2023-05-02T09:16:11;11.32;;;2.83;;
55172;SDS011;41061;52.822;6.860;2023-05-02T09:18:41;10.38;;;1.98;;
55172;SDS011;41061;52.822;6.860;2023-05-02T09:21:22;12.20;;;2.63;;
55172;SDS011;41061;52.822;6.860;2023-05-02T09:23:53;10.05;;;2.50;;
55172;SDS011;41061;52.822;6.860;2023-05-02T09:28:58;9.18;;;2.33;;
55172;SDS011;41061;52.822;6.860;2023-05-02T09:31:29;6.63;;;2.22;;
55172;SDS011;41061;52.822;6.860;2023-05-02T09:34:14;8.73;;;2.33;;
55172;SDS011;41061;52.822;6.860;2023-05-02T09:36:45;6.50;;;1.70;;
55172;SDS011;41061;52.822;6.860;2023-05-02T09:39:18;5.65;;;1.83;;
55172;SDS011;41061;52.822;6.860;2023-05-02T09:41:46;9.00;;;2.10;;
55172;SDS011;41061;52.822;6.860;2023-05-02T09:44:14;10.05;;;1.85;;
55172;SDS011;41061;52.822;6.860;2023-05-02T09:46:44;14.70;;;2.67;;
55172;SDS011;41061;52.822;6.860;2023-05-02T09:49:12;8.68;;;2.10;;
55172;SDS011;41061;52.822;6.860;2023-05-02T09:51:47;10.25;;;2.75;;
55172;SDS011;41061;52.822;6.860;2023-05-02T09:54:13;8.50;;;1.95;;
55172;SDS011;41061;52.822;6.860;2023-05-02T09:56:58;9.65;;;1.90;;
55172;SDS011;41061;52.822;6.860;2023-05-02T09:59:24;29.88;;;3.08;;
55172;SDS011;41061;52.822;6.860;2023-05-02T10:01:56;6.75;;;1.95;;
55172;SDS011;41061;52.822;6.860;2023-05-02T10:04:24;4.88;;;1.63;;
55172;SDS011;41061;52.822;6.860;2023-05-02T10:06:51;7.70;;;1.48;;
55172;SDS011;41061;52.822;6.860;2023-05-02T10:09:18;3.88;;;1.33;;
55172;SDS011;41061;52.822;6.860;2023-05-02T10:11:45;4.13;;;1.48;;
55172;SDS011;41061;52.822;6.860;2023-05-02T10:14:11;6.05;;;1.42;;
55172;SDS011;41061;52.822;6.860;2023-05-02T10:19:29;6.28;;;1.38;;
55172;SDS011;41061;52.822;6.860;2023-05-02T10:22:12;7.35;;;1.60;;
55172;SDS011;41061;52.822;6.860;2023-05-02T10:24:38;3.08;;;1.55;;
55172;SDS011;41061;52.822;6.860;2023-05-02T10:27:05;1.98;;;1.20;;
55172;SDS011;41061;52.822;6.860;2023-05-02T10:29:32;7.50;;;0.95;;
55172;SDS011;41061;52.822;6.860;2023-05-02T10:31:59;3.90;;;0.80;;
55172;SDS011;41061;52.822;6.860;2023-05-02T10:34:28;5.35;;;1.17;;
55172;SDS011;41061;52.822;6.860;2023-05-02T10:36:57;3.83;;;1.10;;
55172;SDS011;41061;52.822;6.860;2023-05-02T10:39:26;4.97;;;1.48;;
55172;SDS011;41061;52.822;6.860;2023-05-02T10:41:53;2.95;;;1.10;;
55172;SDS011;41061;52.822;6.860;2023-05-02T10:44:31;4.97;;;1.10;;
55172;SDS011;41061;52.822;6.860;2023-05-02T10:46:56;4.22;;;1.20;;
55172;SDS011;41061;52.822;6.860;2023-05-02T10:49:23;7.38;;;1.15;;
55172;SDS011;41061;52.822;6.860;2023-05-02T10:51:51;6.93;;;1.17;;
55172;SDS011;41061;52.822;6.860;2023-05-02T10:59:40;3.17;;;1.10;;
55172;SDS011;41061;52.822;6.860;2023-05-02T11:05:07;5.47;;;1.40;;
55172;SDS011;41061;52.822;6.860;2023-05-02T11:07:33;3.35;;;1.10;;
55172;SDS011;41061;52.822;6.860;2023-05-02T11:15:13;5.65;;;1.70;;
55172;SDS011;41061;52.822;6.860;2023-05-02T11:20:36;7.13;;;1.10;;
55172;SDS011;41061;52.822;6.860;2023-05-02T11:31:00;5.43;;;1.10;;
55172;SDS011;41061;52.822;6.860;2023-05-02T11:33:27;5.85;;;1.05;;
55172;SDS011;41061;52.822;6.860;2023-05-02T11:35:53;4.03;;;1.10;;
55172;SDS011;41061;52.822;6.860;2023-05-02T11:38:21;3.53;;;1.02;;
55172;SDS011;41061;52.822;6.860;2023-05-02T11:40:51;3.67;;;0.90;;
55172;SDS011;41061;52.822;6.860;2023-05-02T11:43:18;9.48;;;1.02;;
55172;SDS011;41061;52.822;6.860;2023-05-02T11:45:49;4.40;;;1.05;;
55172;SDS011;41061;52.822;6.860;2023-05-02T11:48:16;6.22;;;1.10;;
55172;SDS011;41061;52.822;6.860;2023-05-02T11:50:44;5.57;;;1.05;;
55172;SDS011;41061;52.822;6.860;2023-05-02T11:53:10;4.57;;;1.02;;
55172;SDS011;41061;52.822;6.860;2023-05-02T11:55:43;3.50;;;1.00;;
55172;SDS011;41061;52.822;6.860;2023-05-02T11:58:18;4.45;;;1.20;;
55172;SDS011;41061;52.822;6.860;2023-05-02T12:00:45;3.40;;;1.05;;
55172;SDS011;41061;52.822;6.860;2023-05-02T12:03:18;3.70;;;1.20;;
55172;SDS011;41061;52.822;6.860;2023-05-02T12:05:49;6.32;;;1.25;;
55172;SDS011;41061;52.822;6.860;2023-05-02T12:08:22;5.03;;;1.15;;
55172;SDS011;41061;52.822;6.860;2023-05-02T12:10:51;2.07;;;0.90;;
55172;SDS011;41061;52.822;6.860;2023-05-02T12:13:18;5.65;;;1.20;;
55172;SDS011;41061;52.822;6.860;2023-05-02T12:15:45;2.90;;;0.73;;
55172;SDS011;41061;52.822;6.860;2023-05-02T12:18:12;2.60;;;0.80;;
55172;SDS011;41061;52.822;6.860;2023-05-02T12:20:38;5.38;;;0.90;;
55172;SDS011;41061;52.822;6.860;2023-05-02T12:23:04;4.00;;;1.10;;
55172;SDS011;41061;52.822;6.860;2023-05-02T12:25:36;5.75;;;1.20;;
55172;SDS011;41061;52.822;6.860;2023-05-02T12:28:06;4.80;;;1.15;;
55172;SDS011;41061;52.822;6.860;2023-05-02T12:30:32;3.00;;;1.10;;
55172;SDS011;41061;52.822;6.860;2023-05-02T12:33:00;4.45;;;1.10;;
55172;SDS011;41061;52.822;6.860;2023-05-02T12:35:27;6.47;;;1.13;;
55172;SDS011;41061;52.822;6.860;2023-05-02T12:37:54;5.45;;;1.13;;
55172;SDS011;41061;52.822;6.860;2023-05-02T12:40:32;6.53;;;1.35;;
55172;SDS011;41061;52.822;6.860;2023-05-02T12:42:58;3.53;;;1.00;;
55172;SDS011;41061;52.822;6.860;2023-05-02T12:45:30;4.43;;;1.30;;
55172;SDS011;41061;52.822;6.860;2023-05-02T12:47:59;8.63;;;1.40;;
55172;SDS011;41061;52.822;6.860;2023-05-02T12:50:55;5.50;;;1.52;;
55172;SDS011;41061;52.822;6.860;2023-05-02T12:53:40;4.53;;;0.95;;
55172;SDS011;41061;52.822;6.860;2023-05-02T12:56:08;4.50;;;1.10;;
55172;SDS011;41061;52.822;6.860;2023-05-02T12:59:08;3.35;;;0.98;;
55172;SDS011;41061;52.822;6.860;2023-05-02T13:01:29;6.10;;;1.23;;
55172;SDS011;41061;52.822;6.860;2023-05-02T13:03:56;4.28;;;1.27;;
55172;SDS011;41061;52.822;6.860;2023-05-02T13:06:22;4.10;;;1.40;;
55172;SDS011;41061;52.822;6.860;2023-05-02T13:08:47;3.97;;;1.10;;
55172;SDS011;41061;52.822;6.860;2023-05-02T13:11:13;3.55;;;1.10;;
55172;SDS011;41061;52.822;6.860;2023-05-02T13:13:39;5.53;;;1.00;;
55172;SDS011;41061;52.822;6.860;2023-05-02T13:16:05;4.38;;;1.00;;
55172;SDS011;41061;52.822;6.860;2023-05-02T13:18:32;5.15;;;1.50;;
55172;SDS011;41061;52.822;6.860;2023-05-02T13:20:57;4.63;;;1.20;;
55172;SDS011;41061;52.822;6.860;2023-05-02T13:23:23;7.70;;;1.08;;
55172;SDS011;41061;52.822;6.860;2023-05-02T13:25:49;5.90;;;1.40;;
55172;SDS011;41061;52.822;6.860;2023-05-02T13:28:14;3.88;;;1.38;;
55172;SDS011;41061;52.822;6.860;2023-05-02T13:30:40;3.17;;;0.98;;
55172;SDS011;41061;52.822;6.860;2023-05-02T13:33:06;5.47;;;0.90;;
55172;SDS011;41061;52.822;6.860;2023-05-02T13:35:31;3.38;;;0.90;;
55172;SDS011;41061;52.822;6.860;2023-05-02T13:37:57;2.42;;;0.80;;
55172;SDS011;41061;52.822;6.860;2023-05-02T13:40:23;2.72;;;0.90;;
55172;SDS011;41061;52.822;6.860;2023-05-02T13:42:49;3.03;;;1.05;;
55172;SDS011;41061;52.822;6.860;2023-05-02T13:45:14;4.00;;;0.93;;
55172;SDS011;41061;52.822;6.860;2023-05-02T13:47:41;3.85;;;0.95;;
55172;SDS011;41061;52.822;6.860;2023-05-02T13:50:07;7.00;;;0.80;;
55172;SDS011;41061;52.822;6.860;2023-05-02T13:52:33;3.80;;;1.05;;
55172;SDS011;41061;52.822;6.860;2023-05-02T13:54:59;5.38;;;0.80;;
55172;SDS011;41061;52.822;6.860;2023-05-02T13:57:24;2.25;;;0.80;;
55172;SDS011;41061;52.822;6.860;2023-05-02T13:59:50;1.25;;;0.70;;
55172;SDS011;41061;52.822;6.860;2023-05-02T14:02:16;6.45;;;1.08;;
55172;SDS011;41061;52.822;6.860;2023-05-02T14:04:42;4.93;;;0.73;;
55172;SDS011;41061;52.822;6.860;2023-05-02T14:07:07;1.33;;;0.50;;
55172;SDS011;41061;52.822;6.860;2023-05-02T14:09:33;4.78;;;0.75;;
55172;SDS011;41061;52.822;6.860;2023-05-02T14:11:59;1.65;;;0.70;;
55172;SDS011;41061;52.822;6.860;2023-05-02T14:14:26;4.75;;;0.90;;
55172;SDS011;41061;52.822;6.860;2023-05-02T14:16:51;3.30;;;0.75;;
55172;SDS011;41061;52.822;6.860;2023-05-02T14:19:17;3.50;;;0.80;;
55172;SDS011;41061;52.822;6.860;2023-05-02T14:21:43;4.68;;;0.93;;
55172;SDS011;41061;52.822;6.860;2023-05-02T14:24:08;3.20;;;0.75;;
55172;SDS011;41061;52.822;6.860;2023-05-02T14:26:36;4.88;;;0.80;;
55172;SDS011;41061;52.822;6.860;2023-05-02T14:29:02;6.00;;;0.70;;
55172;SDS011;41061;52.822;6.860;2023-05-02T14:31:28;3.22;;;0.70;;
55172;SDS011;41061;52.822;6.860;2023-05-02T14:33:54;3.92;;;0.80;;
55172;SDS011;41061;52.822;6.860;2023-05-02T14:36:19;2.20;;;0.70;;
55172;SDS011;41061;52.822;6.860;2023-05-02T14:38:45;3.67;;;0.70;;
55172;SDS011;41061;52.822;6.860;2023-05-02T14:41:11;3.00;;;0.60;;
55172;SDS011;41061;52.822;6.860;2023-05-02T14:43:36;1.50;;;0.63;;
55172;SDS011;41061;52.822;6.860;2023-05-02T14:46:03;5.55;;;0.75;;
55172;SDS011;41061;52.822;6.860;2023-05-02T14:48:29;4.93;;;0.82;;
55172;SDS011;41061;52.822;6.860;2023-05-02T14:50:55;1.80;;;0.60;;
55172;SDS011;41061;52.822;6.860;2023-05-02T14:53:22;3.65;;;0.75;;
55172;SDS011;41061;52.822;6.860;2023-05-02T14:55:48;2.38;;;0.80;;
55172;SDS011;41061;52.822;6.860;2023-05-02T14:58:14;19.25;;;1.60;;
55172;SDS011;41061;52.822;6.860;2023-05-02T15:00:44;1.73;;;0.50;;
55172;SDS011;41061;52.822;6.860;2023-05-02T15:03:10;4.30;;;0.60;;
55172;SDS011;41061;52.822;6.860;2023-05-02T15:05:37;3.20;;;0.70;;
55172;SDS011;41061;52.822;6.860;2023-05-02T15:08:02;4.30;;;0.95;;
55172;SDS011;41061;52.822;6.860;2023-05-02T15:10:29;2.42;;;0.93;;
55172;SDS011;41061;52.822;6.860;2023-05-02T15:12:54;3.75;;;0.80;;
55172;SDS011;41061;52.822;6.860;2023-05-02T15:15:20;2.05;;;0.80;;
55172;SDS011;41061;52.822;6.860;2023-05-02T15:17:49;7.20;;;0.95;;
55172;SDS011;41061;52.822;6.860;2023-05-02T15:20:15;2.33;;;1.05;;
55172;SDS011;41061;52.822;6.860;2023-05-02T15:22:41;2.88;;;0.70;;
55172;SDS011;41061;52.822;6.860;2023-05-02T15:25:07;5.07;;;0.60;;
55172;SDS011;41061;52.822;6.860;2023-05-02T15:27:33;3.05;;;0.85;;
55172;SDS011;41061;52.822;6.860;2023-05-02T15:29:59;1.58;;;0.50;;
55172;SDS011;41061;52.822;6.860;2023-05-02T15:32:26;2.20;;;0.65;;